Port Aransas, TX (78373)

9:26 PM CST on January 26, 2015 (GMT -0600)
Shutters PortA | Change Station
CLOSE
Current Station
Personal Weather Station
Location: Port Aransas, TX
Elevation: 16 ft
Nearby Weather Stations

Elev 16 ft 27.84 °N, 97.06 °W | Updated 7 minutes ago

Clear
Clear
60.4 °F
Feels Like 60.4 °F
N
4.0
Wind Variable Wind from South
Gusts 6.0 mph

Today
High -- | Low -- °F
--% Chance of Precip.
Yesterday
High -- | Low -- °F
Precip. -- in
7:17 AM 6:03 PM
Waxing Crescent, 49% visible
Pressure 30.22 in
Visibility 10.0 miles
Clouds Clear
Dew Point 46 °F
Humidity 60%
Rainfall 0.00 in
Snow Depth Not available.
UV 0 out of 12
Pollen 7.40 out of 12
Air Quality Not available.
Flu Activity Not available.
METAR KRAS 270315Z AUTO 21006KT 10SM CLR 15/06 A3022 RMK AO2 T01500058

More Conditions Fewer Conditions

Pressure 30.22 in
Visibility 10.0 miles
Clouds Clear
Dew Point 46 °F
Humidity 60%
Rainfall 0.00 in
Snow Depth Not available.
UV 0 out of 12
Pollen 7.40 out of 12
Air Quality Not available.
Flu Activity Not available.
METAR KRAS 270315Z AUTO 21006KT 10SM CLR 15/06 A3022 RMK AO2 T01500058

More Conditions Fewer Conditions

10-Day Weather Forecast

Almanac

Astronomy

Jan. 26, 2015 Rise Set
Actual Time
Civil Twilight
Nautical Twilight
Astronomical Twilight
Moon
Length of Visible Light
Length of Day
Tomorrow will be .
, % of the Moon is Illuminated

Today's Extremes

State Highs State Lows

Community

WunderPhotos

Upload Photos

1,790,499 photos uploaded!

WunderBlogs® & News

Nearby

Air Quality

  Air Quality AQ Index Pollutant
Not available.

Snow Depth

Station Depth Elevation

Earthquake Activity

City Distance Mag. Time & Date
Minimum magnitude displayed is 2.5.

Coastal Water Temperatures

Place Temperature

Nearby Weather Stations